Impacts TAF Board
For situational awareness. Not to be used for flight planning purposes.
IDs:

KTCL - Tuscaloosa Rgnl, AL, US

Issued at 1148 UTC 21 Feb 2019
Updated at 1433 UTC 21 Feb 2019
Potential Impact None Slight Moderate High
Time<<22/03Z 22/04Z 22/05Z 22/06Z 22/07Z 22/08Z 22/09Z 22/10Z 22/11Z 22/12Z 22/13Z 22/14Z 22/15Z>>
Type PRVL PRVL PRVL PRVL PRVL PRVL PRVL PRVL PRVL
VIS 2 2 2 2 2 2 2 2 2
CIG 4 4 4 4 4 4 4 4 4
Cover OVC OVC OVC OVC OVC OVC OVC OVC OVC
FltCat LIFR LIFR LIFR LIFR LIFR LIFR LIFR LIFR LIFR
WX -DZ BR -DZ BR -DZ BR -DZ BR -DZ BR -DZ BR -DZ BR -DZ BR -DZ BR
WDir 40 40 40 40 40 40 40 40 40
WSpd 6 6 6 6 6 6 6 6 6
WGst -- -- -- -- -- -- -- -- --
Raw TAF
KTCL 211148Z 2112/2212 33005KT 5SM -SHRA BR SCT007 OVC016
  FM211600 02005KT P6SM BKN006 OVC016
  FM220100 04006KT 2SM -DZ BR OVC004


METAR Board
Radar Display
Forecast Discussion
For situational awareness. Not to be used for flight planning purposes.